WetterOnline ( https://www.wetteronline.at )

Wetter aktuell Schenefeld

Aktuelles Wetter: Quickborn (17m)

6-stündlich | Neueste Meldungen
Ortszeit Temperatur Wetter
So, 15.09. 20:00 14.0° C bewölkt
So, 15.09. 14:00 17.2° C bewölkt
So, 15.09. 8:00 11.2° C wolkig
So, 15.09. 2:00 8.5° C wolkig
Sa, 14.09. 20:00 11.7° C wolkig
Sa, 14.09. 14:00 15.9° C wolkenlos
Sa, 14.09. 8:00 5.9° C leicht bewölkt
Sa, 14.09. 2:00 5.7° C Nebel
Ortszeit Temperatur Wetter
So, 15.09. 21:30 12.6° C bedeckt
So, 15.09. 21:20 12.6° C bedeckt
So, 15.09. 21:10 12.9° C bedeckt
So, 15.09. 21:00 13.3° C bedeckt
So, 15.09. 20:50 13.3° C bedeckt
So, 15.09. 20:40 13.4° C bedeckt
So, 15.09. 20:30 13.9° C bewölkt
So, 15.09. 20:00 14.0° C bewölkt
So, 15.09. 19:30 14.2° C wolkig
So, 15.09. 19:00 14.6° C bewölkt
So, 15.09. 18:30 14.9° C bedeckt
Ortszeit Relative Feuchte Sichtweite
So, 15.09. 20:00 83% 25 km
So, 15.09. 14:00 77% 30 km
So, 15.09. 8:00 72% 50 km
So, 15.09. 2:00 92% 24 km
Sa, 14.09. 20:00 86% 50 km
Sa, 14.09. 14:00 54% 60 km
Sa, 14.09. 8:00 99% 5.0 km
Sa, 14.09. 2:00 97% 0.4 km
Ortszeit Relative Feuchte Sichtweite
So, 15.09. 21:30 89% 21 km
So, 15.09. 21:20 89% -
So, 15.09. 21:10 87% -
So, 15.09. 21:00 84% 21 km
So, 15.09. 20:50 84% -
So, 15.09. 20:40 85% -
So, 15.09. 20:30 82% 23 km
So, 15.09. 20:00 83% 25 km
So, 15.09. 19:30 82% 26 km
So, 15.09. 19:00 82% 28 km
So, 15.09. 18:30 83% 26 km
Ortszeit Niederschlagsmenge Niederschlagsart
So, 15.09. 20:00 1 l/m2 in 12 Std. Regen
So, 15.09. 14:00 0.0 l/m2 in 6 Std. -
So, 15.09. 8:00 0.0 l/m2 in 12 Std. -
So, 15.09. 2:00 0.0 l/m2 in 6 Std. -
Sa, 14.09. 20:00 0.0 l/m2 in 12 Std. -
Sa, 14.09. 14:00 0.0 l/m2 in 6 Std. -
Sa, 14.09. 8:00 0.0 l/m2 in 12 Std. -
Sa, 14.09. 2:00 0.0 l/m2 in 6 Std. -
Ortszeit Niederschlagsmenge Niederschlagsart
So, 15.09. 21:30 0.0 l/m2 in 1 Std. -
So, 15.09. 21:20 keine Meldung -
So, 15.09. 21:10 keine Meldung -
So, 15.09. 21:00 0.0 l/m2 in 1 Std. -
So, 15.09. 20:50 keine Meldung -
So, 15.09. 20:40 keine Meldung -
So, 15.09. 20:30 0.0 l/m2 in 1 Std. -
So, 15.09. 20:00 0.0 l/m2 in 1 Std. Regen
So, 15.09. 19:30 0.0 l/m2 in 1 Std. -
So, 15.09. 19:00 0.0 l/m2 in 1 Std. -
So, 15.09. 18:30 0.0 l/m2 in 1 Std. -
Ortszeit Stärke Spitze Richtung
km/h Bft. km/h Grad Sektor
So, 15.09. 20:00 9 2 43 270° W
So, 15.09. 14:00 18 3 36 260° W
So, 15.09. 8:00 11 2 22 230° SW
So, 15.09. 2:00 6 1 9 170° S
Sa, 14.09. 20:00 4 1 22 320° NW
Sa, 14.09. 14:00 13 3 24 280° W
Sa, 14.09. 8:00 4 1 4 160° S
Sa, 14.09. 2:00 0 0 11 - -
Ortszeit Stärke Spitze Richtung
km/h Bft. km/h Grad Sektor
So, 15.09. 21:30 6 1 9 260° W
So, 15.09. 21:20 6 1 - 260° W
So, 15.09. 21:10 6 1 - 240° SW
So, 15.09. 21:00 7 2 22 260° W
So, 15.09. 20:50 7 2 - 260° W
So, 15.09. 20:40 7 2 - 250° W
So, 15.09. 20:30 9 2 20 280° W
So, 15.09. 20:00 9 2 20 270° W
So, 15.09. 19:30 9 2 19 270° W
So, 15.09. 19:00 9 2 30 270° W
So, 15.09. 18:30 11 2 29 290° W
Ortszeit Untergrenze Bedeckung Gattung
total tief tief mittel hoch
So, 15.09. 20:00 60 m 8/8 7/8 - - -
So, 15.09. 14:00 540 m 7/8 7/8 - - -
So, 15.09. 8:00 9000 m 8/8 0/8 - - -
So, 15.09. 2:00 10500 m 8/8 0/8 - - -
Sa, 14.09. 20:00 9000 m 8/8 0/8 - - -
Sa, 14.09. 14:00 - 0/8 0/8 - - -
Sa, 14.09. 8:00 <30 m 3/8 0/8 - - -
Sa, 14.09. 2:00 - 0/8 0/8 - - -
Ortszeit Bedeckungsgrad in Achtel und Wolkenuntergrenze
So, 15.09. 21:30 8(60m) 8(3300m) 8(4800m)
So, 15.09. 21:20 8(60m) 8(3300m) 8(4800m)
So, 15.09. 21:10 8(60m) 8(4800m) 8(6300m)
So, 15.09. 21:00 8(60m) 8(4500m) 8(6300m)
So, 15.09. 20:50 8(60m) 8(4500m) 8(6300m)
So, 15.09. 20:40 8(60m) 8(4500m) 8(6600m)
So, 15.09. 20:30 7(210m) 8(3300m) 8(4500m)
So, 15.09. 20:00 7(60m) 7(1110m) 8(4800m)
So, 15.09. 19:30 1(60m) 8(4200m) 8(5700m)
So, 15.09. 19:00 7(2700m) 8(3300m) 8(4500m)
So, 15.09. 18:30 4(960m) 8(2700m)
Ortszeit Luftdruck NN (hPa) Tendenz (hPa in 3 Std.)
So, 15.09. 20:00 1019 + 0,5
So, 15.09. 14:00 1018 - 0,4
So, 15.09. 8:00 1020 - 2,1
So, 15.09. 2:00 1025 - 3,0
Sa, 14.09. 20:00 1030 - 1,3
Sa, 14.09. 14:00 1034 - 1,3
Sa, 14.09. 8:00 1035 0,0
Sa, 14.09. 2:00 1035 + 0,4
Ortszeit Luftdruck NN (hPa) Tendenz (hPa in 3 Std.)
So, 15.09. 21:30 1019 + 0,2
So, 15.09. 21:20 1019 keine Meldung
So, 15.09. 21:10 1019 keine Meldung
So, 15.09. 21:00 1019 0,0
So, 15.09. 20:50 1019 keine Meldung
So, 15.09. 20:40 1019 keine Meldung
So, 15.09. 20:30 1019 + 0,2
So, 15.09. 20:00 1019 + 0,5
So, 15.09. 19:30 1019 + 0,4
So, 15.09. 19:00 1019 + 0,2
So, 15.09. 18:30 1019 + 0,4
Ortszeit Schneehöhe (cm)
So, 15.09. 20:00 -
So, 15.09. 14:00 -
So, 15.09. 8:00 -
So, 15.09. 2:00 -
Sa, 14.09. 20:00 -
Sa, 14.09. 14:00 -
Sa, 14.09. 8:00 -
Sa, 14.09. 2:00 -
Ortszeit Schneehöhe (cm)
So, 15.09. 21:30 -
So, 15.09. 21:20 -
So, 15.09. 21:10 -
So, 15.09. 21:00 -
So, 15.09. 20:50 -
So, 15.09. 20:40 -
So, 15.09. 20:30 -
So, 15.09. 20:00 -
So, 15.09. 19:30 -
So, 15.09. 19:00 -
So, 15.09. 18:30 -
Link zu dieser Seite / Seite empfehlen

Das Wetter in ...